sensor_id;sensor_type;location;lat;lon;timestamp;P1;durP1;ratioP1;P2;durP2;ratioP2
7211;SDS011;3647;48.792;9.802;2023-05-29T05:05:10;5.03;;;3.10;;
7211;SDS011;3647;48.792;9.802;2023-05-29T05:07:37;6.20;;;3.05;;
7211;SDS011;3647;48.792;9.802;2023-05-29T05:10:04;6.55;;;4.03;;
7211;SDS011;3647;48.792;9.802;2023-05-29T05:12:32;3.50;;;2.72;;
7211;SDS011;3647;48.792;9.802;2023-05-29T05:14:59;3.67;;;3.08;;
7211;SDS011;3647;48.792;9.802;2023-05-29T05:17:26;3.38;;;2.85;;
7211;SDS011;3647;48.792;9.802;2023-05-29T05:19:52;3.55;;;3.10;;
7211;SDS011;3647;48.792;9.802;2023-05-29T05:22:21;3.80;;;2.75;;
7211;SDS011;3647;48.792;9.802;2023-05-29T05:24:47;5.10;;;2.83;;
7211;SDS011;3647;48.792;9.802;2023-05-29T05:27:14;4.03;;;3.42;;
7211;SDS011;3647;48.792;9.802;2023-05-29T05:29:41;4.88;;;3.00;;
7211;SDS011;3647;48.792;9.802;2023-05-29T05:32:08;4.57;;;3.05;;
7211;SDS011;3647;48.792;9.802;2023-05-29T05:34:35;4.35;;;2.80;;
7211;SDS011;3647;48.792;9.802;2023-05-29T05:37:01;5.15;;;2.70;;
7211;SDS011;3647;48.792;9.802;2023-05-29T05:39:30;3.80;;;2.78;;
7211;SDS011;3647;48.792;9.802;2023-05-29T05:41:56;5.00;;;3.67;;
7211;SDS011;3647;48.792;9.802;2023-05-29T05:44:23;4.40;;;2.80;;
7211;SDS011;3647;48.792;9.802;2023-05-29T05:46:50;4.32;;;3.13;;
7211;SDS011;3647;48.792;9.802;2023-05-29T05:49:17;4.25;;;3.70;;
7211;SDS011;3647;48.792;9.802;2023-05-29T05:51:44;5.28;;;3.67;;
7211;SDS011;3647;48.792;9.802;2023-05-29T05:54:11;3.95;;;3.10;;
7211;SDS011;3647;48.792;9.802;2023-05-29T05:56:39;6.55;;;3.63;;
7211;SDS011;3647;48.792;9.802;2023-05-29T05:59:06;5.25;;;3.47;;
7211;SDS011;3647;48.792;9.802;2023-05-29T06:01:33;5.20;;;3.67;;
7211;SDS011;3647;48.792;9.802;2023-05-29T06:04:00;4.72;;;3.60;;
7211;SDS011;3647;48.792;9.802;2023-05-29T06:06:26;4.05;;;3.58;;
7211;SDS011;3647;48.792;9.802;2023-05-29T06:08:53;4.63;;;3.03;;
7211;SDS011;3647;48.792;9.802;2023-05-29T06:11:21;3.17;;;2.88;;
7211;SDS011;3647;48.792;9.802;2023-05-29T06:13:49;5.25;;;3.17;;
7211;SDS011;3647;48.792;9.802;2023-05-29T06:16:17;4.93;;;3.63;;
7211;SDS011;3647;48.792;9.802;2023-05-29T06:18:44;4.05;;;3.28;;
7211;SDS011;3647;48.792;9.802;2023-05-29T06:21:11;5.93;;;3.13;;
7211;SDS011;3647;48.792;9.802;2023-05-29T06:23:38;6.50;;;4.65;;
7211;SDS011;3647;48.792;9.802;2023-05-29T06:26:06;5.72;;;3.45;;
7211;SDS011;3647;48.792;9.802;2023-05-29T06:28:34;5.55;;;3.55;;
7211;SDS011;3647;48.792;9.802;2023-05-29T06:31:02;4.07;;;3.00;;
7211;SDS011;3647;48.792;9.802;2023-05-29T06:33:29;4.20;;;3.22;;
7211;SDS011;3647;48.792;9.802;2023-05-29T06:35:56;4.05;;;2.97;;
7211;SDS011;3647;48.792;9.802;2023-05-29T06:38:23;4.57;;;2.80;;
7211;SDS011;3647;48.792;9.802;2023-05-29T06:40:49;4.75;;;3.35;;
7211;SDS011;3647;48.792;9.802;2023-05-29T06:43:16;4.78;;;3.30;;
7211;SDS011;3647;48.792;9.802;2023-05-29T06:45:43;5.22;;;2.97;;
7211;SDS011;3647;48.792;9.802;2023-05-29T06:48:11;3.70;;;3.20;;
7211;SDS011;3647;48.792;9.802;2023-05-29T06:50:38;5.20;;;3.45;;
7211;SDS011;3647;48.792;9.802;2023-05-29T06:53:05;3.28;;;2.83;;
7211;SDS011;3647;48.792;9.802;2023-05-29T06:55:32;5.55;;;3.20;;
7211;SDS011;3647;48.792;9.802;2023-05-29T06:57:58;3.38;;;2.67;;
7211;SDS011;3647;48.792;9.802;2023-05-29T07:00:25;6.45;;;3.00;;
7211;SDS011;3647;48.792;9.802;2023-05-29T07:02:52;7.63;;;3.22;;
7211;SDS011;3647;48.792;9.802;2023-05-29T07:05:20;4.97;;;3.15;;
7211;SDS011;3647;48.792;9.802;2023-05-29T07:07:47;3.80;;;3.05;;
7211;SDS011;3647;48.792;9.802;2023-05-29T07:10:15;3.90;;;3.17;;
7211;SDS011;3647;48.792;9.802;2023-05-29T07:12:41;5.20;;;3.20;;
7211;SDS011;3647;48.792;9.802;2023-05-29T07:15:08;6.03;;;3.35;;
7211;SDS011;3647;48.792;9.802;2023-05-29T07:17:36;5.65;;;3.38;;
7211;SDS011;3647;48.792;9.802;2023-05-29T07:20:02;5.22;;;3.03;;
7211;SDS011;3647;48.792;9.802;2023-05-29T07:22:34;5.05;;;3.25;;
7211;SDS011;3647;48.792;9.802;2023-05-29T07:25:00;3.45;;;3.15;;
7211;SDS011;3647;48.792;9.802;2023-05-29T07:27:28;4.05;;;3.03;;
7211;SDS011;3647;48.792;9.802;2023-05-29T07:29:55;3.90;;;2.95;;
7211;SDS011;3647;48.792;9.802;2023-05-29T07:32:22;4.68;;;3.25;;
7211;SDS011;3647;48.792;9.802;2023-05-29T07:34:49;3.92;;;3.13;;
7211;SDS011;3647;48.792;9.802;2023-05-29T07:37:16;4.18;;;2.95;;
7211;SDS011;3647;48.792;9.802;2023-05-29T07:39:45;4.43;;;3.40;;
7211;SDS011;3647;48.792;9.802;2023-05-29T07:42:12;3.70;;;3.08;;
7211;SDS011;3647;48.792;9.802;2023-05-29T07:44:39;4.70;;;3.40;;
7211;SDS011;3647;48.792;9.802;2023-05-29T07:47:06;4.53;;;3.22;;
7211;SDS011;3647;48.792;9.802;2023-05-29T07:49:33;5.35;;;3.00;;
7211;SDS011;3647;48.792;9.802;2023-05-29T07:52:01;2.90;;;2.70;;
7211;SDS011;3647;48.792;9.802;2023-05-29T07:54:28;4.35;;;3.20;;
7211;SDS011;3647;48.792;9.802;2023-05-29T07:56:59;5.15;;;3.42;;
7211;SDS011;3647;48.792;9.802;2023-05-29T07:59:27;4.55;;;3.28;;
7211;SDS011;3647;48.792;9.802;2023-05-29T08:01:55;5.38;;;3.65;;
7211;SDS011;3647;48.792;9.802;2023-05-29T08:04:23;4.93;;;3.03;;
7211;SDS011;3647;48.792;9.802;2023-05-29T08:06:50;3.65;;;2.72;;
7211;SDS011;3647;48.792;9.802;2023-05-29T08:09:17;5.90;;;2.80;;
7211;SDS011;3647;48.792;9.802;2023-05-29T08:11:43;4.28;;;3.25;;
7211;SDS011;3647;48.792;9.802;2023-05-29T08:14:13;6.22;;;3.10;;
7211;SDS011;3647;48.792;9.802;2023-05-29T08:16:40;4.75;;;3.45;;
7211;SDS011;3647;48.792;9.802;2023-05-29T08:19:07;6.63;;;3.40;;
7211;SDS011;3647;48.792;9.802;2023-05-29T08:21:34;3.88;;;2.80;;
7211;SDS011;3647;48.792;9.802;2023-05-29T08:24:03;3.75;;;3.17;;
7211;SDS011;3647;48.792;9.802;2023-05-29T08:26:30;3.63;;;3.08;;
7211;SDS011;3647;48.792;9.802;2023-05-29T08:28:57;4.88;;;3.13;;
7211;SDS011;3647;48.792;9.802;2023-05-29T08:31:25;4.18;;;3.03;;
7211;SDS011;3647;48.792;9.802;2023-05-29T08:33:52;3.95;;;2.70;;
7211;SDS011;3647;48.792;9.802;2023-05-29T08:36:19;4.38;;;2.30;;
7211;SDS011;3647;48.792;9.802;2023-05-29T08:38:47;4.35;;;2.53;;
7211;SDS011;3647;48.792;9.802;2023-05-29T08:41:16;6.20;;;3.03;;
7211;SDS011;3647;48.792;9.802;2023-05-29T08:43:48;5.53;;;2.67;;
7211;SDS011;3647;48.792;9.802;2023-05-29T08:46:18;2.80;;;2.50;;
7211;SDS011;3647;48.792;9.802;2023-05-29T08:48:48;3.92;;;2.30;;
7211;SDS011;3647;48.792;9.802;2023-05-29T08:51:16;4.03;;;2.38;;
7211;SDS011;3647;48.792;9.802;2023-05-29T08:53:46;3.92;;;2.95;;
7211;SDS011;3647;48.792;9.802;2023-05-29T08:56:13;4.13;;;2.90;;
7211;SDS011;3647;48.792;9.802;2023-05-29T08:58:40;3.03;;;2.40;;
7211;SDS011;3647;48.792;9.802;2023-05-29T09:01:08;4.10;;;2.75;;
7211;SDS011;3647;48.792;9.802;2023-05-29T09:03:37;3.85;;;2.70;;
7211;SDS011;3647;48.792;9.802;2023-05-29T09:06:05;4.93;;;2.60;;
7211;SDS011;3647;48.792;9.802;2023-05-29T09:08:33;5.15;;;2.72;;
7211;SDS011;3647;48.792;9.802;2023-05-29T09:11:00;3.83;;;2.92;;
7211;SDS011;3647;48.792;9.802;2023-05-29T09:13:27;3.75;;;2.83;;
7211;SDS011;3647;48.792;9.802;2023-05-29T09:15:56;4.97;;;3.13;;
7211;SDS011;3647;48.792;9.802;2023-05-29T09:18:23;8.18;;;2.75;;
7211;SDS011;3647;48.792;9.802;2023-05-29T09:20:54;5.57;;;3.03;;
7211;SDS011;3647;48.792;9.802;2023-05-29T09:23:22;5.05;;;2.67;;
7211;SDS011;3647;48.792;9.802;2023-05-29T09:25:51;3.20;;;2.20;;
7211;SDS011;3647;48.792;9.802;2023-05-29T09:28:19;4.95;;;2.50;;
7211;SDS011;3647;48.792;9.802;2023-05-29T09:30:48;4.97;;;2.50;;
7211;SDS011;3647;48.792;9.802;2023-05-29T09:33:15;3.95;;;2.78;;
7211;SDS011;3647;48.792;9.802;2023-05-29T09:35:43;7.88;;;2.58;;
7211;SDS011;3647;48.792;9.802;2023-05-29T09:38:11;5.35;;;2.65;;
7211;SDS011;3647;48.792;9.802;2023-05-29T09:40:40;2.67;;;2.45;;
7211;SDS011;3647;48.792;9.802;2023-05-29T09:43:11;3.20;;;2.88;;
7211;SDS011;3647;48.792;9.802;2023-05-29T09:45:39;4.20;;;2.97;;
7211;SDS011;3647;48.792;9.802;2023-05-29T09:48:07;3.70;;;2.60;;
7211;SDS011;3647;48.792;9.802;2023-05-29T09:50:38;4.22;;;2.72;;
7211;SDS011;3647;48.792;9.802;2023-05-29T09:53:15;4.43;;;2.75;;
7211;SDS011;3647;48.792;9.802;2023-05-29T09:55:45;3.40;;;2.40;;
7211;SDS011;3647;48.792;9.802;2023-05-29T09:58:13;2.85;;;2.55;;
7211;SDS011;3647;48.792;9.802;2023-05-29T10:00:41;3.17;;;2.38;;
7211;SDS011;3647;48.792;9.802;2023-05-29T10:03:08;3.30;;;2.30;;
7211;SDS011;3647;48.792;9.802;2023-05-29T10:05:35;4.40;;;2.75;;
7211;SDS011;3647;48.792;9.802;2023-05-29T10:08:03;2.58;;;2.05;;
7211;SDS011;3647;48.792;9.802;2023-05-29T10:10:34;3.20;;;2.28;;
7211;SDS011;3647;48.792;9.802;2023-05-29T10:13:05;3.67;;;2.50;;
7211;SDS011;3647;48.792;9.802;2023-05-29T10:15:36;2.55;;;2.33;;
7211;SDS011;3647;48.792;9.802;2023-05-29T10:18:07;3.53;;;2.55;;
7211;SDS011;3647;48.792;9.802;2023-05-29T10:20:39;4.57;;;2.30;;
7211;SDS011;3647;48.792;9.802;2023-05-29T10:23:08;3.35;;;2.30;;
7211;SDS011;3647;48.792;9.802;2023-05-29T10:25:36;2.92;;;2.13;;
7211;SDS011;3647;48.792;9.802;2023-05-29T10:28:05;3.50;;;2.03;;
7211;SDS011;3647;48.792;9.802;2023-05-29T10:30:34;2.92;;;2.17;;
7211;SDS011;3647;48.792;9.802;2023-05-29T10:33:14;3.33;;;2.50;;
7211;SDS011;3647;48.792;9.802;2023-05-29T10:35:57;2.30;;;2.10;;
7211;SDS011;3647;48.792;9.802;2023-05-29T10:38:29;3.08;;;1.95;;
7211;SDS011;3647;48.792;9.802;2023-05-29T10:40:56;2.90;;;2.10;;
7211;SDS011;3647;48.792;9.802;2023-05-29T10:43:59;3.58;;;2.25;;
7211;SDS011;3647;48.792;9.802;2023-05-29T10:49:33;4.03;;;2.95;;
7211;SDS011;3647;48.792;9.802;2023-05-29T10:52:00;4.90;;;2.40;;
7211;SDS011;3647;48.792;9.802;2023-05-29T10:54:40;3.25;;;2.10;;
7211;SDS011;3647;48.792;9.802;2023-05-29T10:57:15;3.45;;;1.98;;
7211;SDS011;3647;48.792;9.802;2023-05-29T10:59:44;3.67;;;2.60;;
7211;SDS011;3647;48.792;9.802;2023-05-29T11:02:12;4.93;;;2.50;;
7211;SDS011;3647;48.792;9.802;2023-05-29T11:04:43;3.10;;;2.10;;
7211;SDS011;3647;48.792;9.802;2023-05-29T11:10:10;2.78;;;2.10;;
7211;SDS011;3647;48.792;9.802;2023-05-29T11:15:24;2.63;;;2.22;;
7211;SDS011;3647;48.792;9.802;2023-05-29T11:17:52;4.72;;;2.30;;
7211;SDS011;3647;48.792;9.802;2023-05-29T11:20:27;3.80;;;2.50;;
7211;SDS011;3647;48.792;9.802;2023-05-29T11:23:00;4.68;;;2.40;;
7211;SDS011;3647;48.792;9.802;2023-05-29T11:25:28;3.78;;;2.55;;
7211;SDS011;3647;48.792;9.802;2023-05-29T11:27:58;4.18;;;2.58;;
7211;SDS011;3647;48.792;9.802;2023-05-29T11:30:26;2.40;;;2.20;;
7211;SDS011;3647;48.792;9.802;2023-05-29T11:32:53;3.40;;;2.45;;
7211;SDS011;3647;48.792;9.802;2023-05-29T11:35:23;3.08;;;2.58;;
7211;SDS011;3647;48.792;9.802;2023-05-29T11:37:52;3.75;;;2.33;;
7211;SDS011;3647;48.792;9.802;2023-05-29T11:40:19;2.65;;;2.10;;
7211;SDS011;3647;48.792;9.802;2023-05-29T11:42:46;2.97;;;1.95;;
7211;SDS011;3647;48.792;9.802;2023-05-29T11:45:14;2.47;;;2.13;;
7211;SDS011;3647;48.792;9.802;2023-05-29T11:47:56;4.80;;;2.30;;
7211;SDS011;3647;48.792;9.802;2023-05-29T11:50:24;3.25;;;2.58;;
7211;SDS011;3647;48.792;9.802;2023-05-29T11:52:52;5.82;;;3.05;;
7211;SDS011;3647;48.792;9.802;2023-05-29T11:55:20;3.35;;;2.70;;
7211;SDS011;3647;48.792;9.802;2023-05-29T11:57:48;2.95;;;2.28;;
7211;SDS011;3647;48.792;9.802;2023-05-29T12:00:15;3.47;;;2.58;;
7211;SDS011;3647;48.792;9.802;2023-05-29T12:02:44;4.07;;;2.63;;
7211;SDS011;3647;48.792;9.802;2023-05-29T12:05:13;5.00;;;2.85;;
7211;SDS011;3647;48.792;9.802;2023-05-29T12:07:46;4.53;;;2.50;;
7211;SDS011;3647;48.792;9.802;2023-05-29T12:10:14;2.75;;;2.20;;
7211;SDS011;3647;48.792;9.802;2023-05-29T12:12:43;3.20;;;2.45;;
7211;SDS011;3647;48.792;9.802;2023-05-29T12:15:13;3.15;;;2.13;;
7211;SDS011;3647;48.792;9.802;2023-05-29T12:17:41;3.28;;;2.38;;
7211;SDS011;3647;48.792;9.802;2023-05-29T12:20:08;3.20;;;2.40;;
7211;SDS011;3647;48.792;9.802;2023-05-29T12:22:39;4.45;;;2.47;;
7211;SDS011;3647;48.792;9.802;2023-05-29T12:25:07;3.35;;;2.42;;
7211;SDS011;3647;48.792;9.802;2023-05-29T12:27:36;5.72;;;2.83;;
7211;SDS011;3647;48.792;9.802;2023-05-29T12:30:08;4.53;;;2.67;;
7211;SDS011;3647;48.792;9.802;2023-05-29T12:32:35;3.70;;;2.97;;
7211;SDS011;3647;48.792;9.802;2023-05-29T12:35:09;3.30;;;2.60;;
7211;SDS011;3647;48.792;9.802;2023-05-29T12:37:42;3.50;;;2.80;;
7211;SDS011;3647;48.792;9.802;2023-05-29T12:40:11;2.92;;;2.45;;
7211;SDS011;3647;48.792;9.802;2023-05-29T12:42:41;3.03;;;2.72;;
7211;SDS011;3647;48.792;9.802;2023-05-29T12:45:08;4.68;;;2.75;;
7211;SDS011;3647;48.792;9.802;2023-05-29T12:47:35;4.45;;;2.78;;
7211;SDS011;3647;48.792;9.802;2023-05-29T12:50:18;5.35;;;3.00;;
7211;SDS011;3647;48.792;9.802;2023-05-29T12:52:53;4.18;;;2.65;;
7211;SDS011;3647;48.792;9.802;2023-05-29T12:55:21;2.85;;;2.55;;
7211;SDS011;3647;48.792;9.802;2023-05-29T12:57:48;3.58;;;2.50;;
7211;SDS011;3647;48.792;9.802;2023-05-29T13:00:15;4.22;;;2.67;;
7211;SDS011;3647;48.792;9.802;2023-05-29T13:02:43;3.65;;;2.63;;
7211;SDS011;3647;48.792;9.802;2023-05-29T13:05:10;4.20;;;2.78;;
7211;SDS011;3647;48.792;9.802;2023-05-29T13:07:37;4.75;;;2.38;;
7211;SDS011;3647;48.792;9.802;2023-05-29T13:10:06;3.25;;;2.40;;
7211;SDS011;3647;48.792;9.802;2023-05-29T13:12:34;4.68;;;2.50;;
7211;SDS011;3647;48.792;9.802;2023-05-29T13:15:00;3.03;;;2.20;;
7211;SDS011;3647;48.792;9.802;2023-05-29T13:17:27;3.97;;;2.67;;
7211;SDS011;3647;48.792;9.802;2023-05-29T13:19:54;3.33;;;2.50;;
7211;SDS011;3647;48.792;9.802;2023-05-29T13:22:21;2.35;;;2.13;;
7211;SDS011;3647;48.792;9.802;2023-05-29T13:24:48;3.42;;;2.28;;
7211;SDS011;3647;48.792;9.802;2023-05-29T13:27:16;2.88;;;2.58;;
7211;SDS011;3647;48.792;9.802;2023-05-29T13:29:43;2.80;;;2.33;;
7211;SDS011;3647;48.792;9.802;2023-05-29T13:32:10;3.67;;;2.50;;
7211;SDS011;3647;48.792;9.802;2023-05-29T13:34:37;3.60;;;2.45;;
7211;SDS011;3647;48.792;9.802;2023-05-29T13:37:04;3.33;;;2.17;;
7211;SDS011;3647;48.792;9.802;2023-05-29T13:39:31;2.80;;;2.40;;
7211;SDS011;3647;48.792;9.802;2023-05-29T13:41:57;2.75;;;2.28;;
7211;SDS011;3647;48.792;9.802;2023-05-29T13:44:26;2.42;;;2.15;;
7211;SDS011;3647;48.792;9.802;2023-05-29T13:46:53;5.45;;;2.33;;
7211;SDS011;3647;48.792;9.802;2023-05-29T13:49:20;3.08;;;2.67;;
7211;SDS011;3647;48.792;9.802;2023-05-29T13:51:47;2.78;;;2.20;;
7211;SDS011;3647;48.792;9.802;2023-05-29T13:54:15;3.08;;;2.42;;
7211;SDS011;3647;48.792;9.802;2023-05-29T13:56:42;2.97;;;2.25;;
7211;SDS011;3647;48.792;9.802;2023-05-29T13:59:09;3.85;;;2.65;;
7211;SDS011;3647;48.792;9.802;2023-05-29T14:01:37;2.85;;;2.42;;
7211;SDS011;3647;48.792;9.802;2023-05-29T14:04:04;2.38;;;2.15;;
7211;SDS011;3647;48.792;9.802;2023-05-29T14:06:31;2.40;;;2.15;;
7211;SDS011;3647;48.792;9.802;2023-05-29T14:08:58;2.55;;;2.17;;
7211;SDS011;3647;48.792;9.802;2023-05-29T14:11:26;3.50;;;2.45;;
7211;SDS011;3647;48.792;9.802;2023-05-29T14:13:53;4.50;;;2.60;;
7211;SDS011;3647;48.792;9.802;2023-05-29T14:16:19;3.45;;;2.50;;
7211;SDS011;3647;48.792;9.802;2023-05-29T14:18:47;3.38;;;2.50;;
7211;SDS011;3647;48.792;9.802;2023-05-29T14:21:15;6.50;;;2.30;;
7211;SDS011;3647;48.792;9.802;2023-05-29T14:23:41;3.10;;;2.42;;
7211;SDS011;3647;48.792;9.802;2023-05-29T14:26:08;3.05;;;2.30;;
7211;SDS011;3647;48.792;9.802;2023-05-29T14:28:35;3.40;;;2.67;;
7211;SDS011;3647;48.792;9.802;2023-05-29T14:31:03;5.63;;;2.63;;
7211;SDS011;3647;48.792;9.802;2023-05-29T14:33:30;2.83;;;2.38;;
7211;SDS011;3647;48.792;9.802;2023-05-29T14:35:59;3.42;;;2.75;;
7211;SDS011;3647;48.792;9.802;2023-05-29T14:38:25;3.08;;;2.60;;
7211;SDS011;3647;48.792;9.802;2023-05-29T14:40:52;3.22;;;2.75;;
7211;SDS011;3647;48.792;9.802;2023-05-29T14:43:19;3.03;;;2.33;;
7211;SDS011;3647;48.792;9.802;2023-05-29T14:45:46;2.65;;;2.45;;
7211;SDS011;3647;48.792;9.802;2023-05-29T14:48:13;3.53;;;2.65;;
7211;SDS011;3647;48.792;9.802;2023-05-29T14:50:41;3.85;;;2.58;;
7211;SDS011;3647;48.792;9.802;2023-05-29T14:53:09;3.35;;;2.50;;
7211;SDS011;3647;48.792;9.802;2023-05-29T14:55:36;4.47;;;2.50;;
7211;SDS011;3647;48.792;9.802;2023-05-29T14:58:04;3.30;;;2.40;;
7211;SDS011;3647;48.792;9.802;2023-05-29T15:00:31;3.17;;;2.80;;
7211;SDS011;3647;48.792;9.802;2023-05-29T15:02:57;4.28;;;2.85;;
7211;SDS011;3647;48.792;9.802;2023-05-29T15:05:25;12.68;;;4.43;;
7211;SDS011;3647;48.792;9.802;2023-05-29T15:07:52;6.60;;;2.85;;
7211;SDS011;3647;48.792;9.802;2023-05-29T15:10:22;3.17;;;2.30;;
7211;SDS011;3647;48.792;9.802;2023-05-29T15:12:49;7.25;;;2.92;;
7211;SDS011;3647;48.792;9.802;2023-05-29T15:15:21;3.28;;;2.45;;
7211;SDS011;3647;48.792;9.802;2023-05-29T15:17:49;3.70;;;3.33;;
7211;SDS011;3647;48.792;9.802;2023-05-29T15:20:18;4.55;;;2.35;;
7211;SDS011;3647;48.792;9.802;2023-05-29T15:22:45;6.10;;;2.70;;
7211;SDS011;3647;48.792;9.802;2023-05-29T15:25:13;4.07;;;2.60;;
7211;SDS011;3647;48.792;9.802;2023-05-29T15:27:41;3.20;;;2.42;;
7211;SDS011;3647;48.792;9.802;2023-05-29T15:30:08;3.38;;;2.15;;
7211;SDS011;3647;48.792;9.802;2023-05-29T15:32:37;3.75;;;2.20;;
7211;SDS011;3647;48.792;9.802;2023-05-29T15:35:06;3.45;;;2.60;;
7211;SDS011;3647;48.792;9.802;2023-05-29T15:37:33;3.33;;;2.72;;
7211;SDS011;3647;48.792;9.802;2023-05-29T15:40:00;3.95;;;2.17;;
7211;SDS011;3647;48.792;9.802;2023-05-29T15:42:27;3.67;;;2.40;;
7211;SDS011;3647;48.792;9.802;2023-05-29T15:44:55;2.47;;;2.22;;
7211;SDS011;3647;48.792;9.802;2023-05-29T15:47:22;2.88;;;2.47;;
7211;SDS011;3647;48.792;9.802;2023-05-29T15:49:49;4.65;;;2.97;;
7211;SDS011;3647;48.792;9.802;2023-05-29T15:52:16;3.45;;;2.60;;
7211;SDS011;3647;48.792;9.802;2023-05-29T15:54:43;2.65;;;2.10;;
7211;SDS011;3647;48.792;9.802;2023-05-29T15:57:10;2.50;;;2.30;;
7211;SDS011;3647;48.792;9.802;2023-05-29T15:59:37;4.38;;;2.08;;
7211;SDS011;3647;48.792;9.802;2023-05-29T16:02:05;3.42;;;2.33;;
7211;SDS011;3647;48.792;9.802;2023-05-29T16:04:33;2.92;;;2.40;;
7211;SDS011;3647;48.792;9.802;2023-05-29T16:07:00;3.25;;;2.40;;
7211;SDS011;3647;48.792;9.802;2023-05-29T16:09:27;3.72;;;2.40;;
7211;SDS011;3647;48.792;9.802;2023-05-29T16:11:54;2.70;;;2.00;;
7211;SDS011;3647;48.792;9.802;2023-05-29T16:14:21;3.35;;;2.08;;
7211;SDS011;3647;48.792;9.802;2023-05-29T16:16:50;3.53;;;2.35;;
7211;SDS011;3647;48.792;9.802;2023-05-29T16:19:18;3.50;;;2.50;;
7211;SDS011;3647;48.792;9.802;2023-05-29T16:21:44;2.70;;;2.28;;
7211;SDS011;3647;48.792;9.802;2023-05-29T16:24:11;3.05;;;2.40;;
7211;SDS011;3647;48.792;9.802;2023-05-29T16:26:38;2.75;;;2.22;;
7211;SDS011;3647;48.792;9.802;2023-05-29T16:29:05;2.92;;;2.10;;
7211;SDS011;3647;48.792;9.802;2023-05-29T16:31:32;3.35;;;2.25;;
7211;SDS011;3647;48.792;9.802;2023-05-29T16:33:59;3.78;;;2.30;;
7211;SDS011;3647;48.792;9.802;2023-05-29T16:36:27;3.08;;;2.10;;
7211;SDS011;3647;48.792;9.802;2023-05-29T16:38:54;3.60;;;2.35;;
7211;SDS011;3647;48.792;9.802;2023-05-29T16:41:21;3.67;;;2.28;;
7211;SDS011;3647;48.792;9.802;2023-05-29T16:43:47;2.30;;;1.90;;
7211;SDS011;3647;48.792;9.802;2023-05-29T16:46:14;3.20;;;2.40;;
7211;SDS011;3647;48.792;9.802;2023-05-29T16:48:41;3.22;;;2.40;;
7211;SDS011;3647;48.792;9.802;2023-05-29T16:51:09;2.13;;;1.92;;
7211;SDS011;3647;48.792;9.802;2023-05-29T16:53:37;3.63;;;2.00;;
7211;SDS011;3647;48.792;9.802;2023-05-29T16:56:04;3.30;;;2.20;;
7211;SDS011;3647;48.792;9.802;2023-05-29T16:58:32;3.28;;;2.65;;
7211;SDS011;3647;48.792;9.802;2023-05-29T17:00:59;3.38;;;2.10;;
7211;SDS011;3647;48.792;9.802;2023-05-29T17:03:25;2.97;;;2.38;;
7211;SDS011;3647;48.792;9.802;2023-05-29T17:05:53;2.47;;;2.10;;
7211;SDS011;3647;48.792;9.802;2023-05-29T17:08:20;3.35;;;2.20;;
7211;SDS011;3647;48.792;9.802;2023-05-29T17:10:48;3.72;;;2.40;;
7211;SDS011;3647;48.792;9.802;2023-05-29T17:13:15;5.15;;;2.40;;
7211;SDS011;3647;48.792;9.802;2023-05-29T17:15:42;6.60;;;2.40;;
7211;SDS011;3647;48.792;9.802;2023-05-29T17:18:09;2.88;;;2.15;;
7211;SDS011;3647;48.792;9.802;2023-05-29T17:20:36;3.28;;;2.58;;
7211;SDS011;3647;48.792;9.802;2023-05-29T17:23:02;3.25;;;2.15;;
7211;SDS011;3647;48.792;9.802;2023-05-29T17:25:29;2.80;;;2.10;;
7211;SDS011;3647;48.792;9.802;2023-05-29T17:27:57;3.15;;;2.25;;
7211;SDS011;3647;48.792;9.802;2023-05-29T17:30:25;4.18;;;2.67;;
7211;SDS011;3647;48.792;9.802;2023-05-29T17:32:52;3.35;;;1.98;;
7211;SDS011;3647;48.792;9.802;2023-05-29T17:35:19;6.28;;;2.53;;
7211;SDS011;3647;48.792;9.802;2023-05-29T17:37:46;3.08;;;2.33;;
7211;SDS011;3647;48.792;9.802;2023-05-29T17:40:13;3.00;;;2.40;;
7211;SDS011;3647;48.792;9.802;2023-05-29T17:42:39;2.63;;;2.10;;
7211;SDS011;3647;48.792;9.802;2023-05-29T17:45:08;2.92;;;2.28;;
7211;SDS011;3647;48.792;9.802;2023-05-29T17:47:36;2.63;;;2.40;;
7211;SDS011;3647;48.792;9.802;2023-05-29T17:50:02;3.53;;;2.08;;
7211;SDS011;3647;48.792;9.802;2023-05-29T17:52:30;3.60;;;2.50;;
7211;SDS011;3647;48.792;9.802;2023-05-29T17:54:56;2.72;;;2.15;;
7211;SDS011;3647;48.792;9.802;2023-05-29T17:57:23;3.85;;;2.08;;
7211;SDS011;3647;48.792;9.802;2023-05-29T17:59:50;3.08;;;2.33;;
7211;SDS011;3647;48.792;9.802;2023-05-29T18:02:19;3.38;;;2.20;;
7211;SDS011;3647;48.792;9.802;2023-05-29T18:04:46;3.47;;;2.58;;
7211;SDS011;3647;48.792;9.802;2023-05-29T18:07:15;2.78;;;2.30;;
7211;SDS011;3647;48.792;9.802;2023-05-29T18:09:42;3.25;;;2.30;;
7211;SDS011;3647;48.792;9.802;2023-05-29T18:12:10;2.58;;;1.98;;
7211;SDS011;3647;48.792;9.802;2023-05-29T18:14:36;3.38;;;2.47;;
7211;SDS011;3647;48.792;9.802;2023-05-29T18:17:04;2.58;;;2.33;;
7211;SDS011;3647;48.792;9.802;2023-05-29T18:19:32;3.25;;;2.28;;
7211;SDS011;3647;48.792;9.802;2023-05-29T18:22:00;3.47;;;2.25;;
7211;SDS011;3647;48.792;9.802;2023-05-29T18:24:27;2.95;;;2.40;;
7211;SDS011;3647;48.792;9.802;2023-05-29T18:26:54;2.45;;;2.25;;
7211;SDS011;3647;48.792;9.802;2023-05-29T18:29:21;3.63;;;2.45;;
7211;SDS011;3647;48.792;9.802;2023-05-29T18:31:48;3.35;;;2.45;;
7211;SDS011;3647;48.792;9.802;2023-05-29T18:34:15;3.47;;;2.58;;
7211;SDS011;3647;48.792;9.802;2023-05-29T18:36:43;3.92;;;2.90;;
7211;SDS011;3647;48.792;9.802;2023-05-29T18:39:10;3.60;;;2.55;;
7211;SDS011;3647;48.792;9.802;2023-05-29T18:41:37;2.50;;;2.30;;
7211;SDS011;3647;48.792;9.802;2023-05-29T18:44:03;3.38;;;2.50;;
7211;SDS011;3647;48.792;9.802;2023-05-29T18:46:30;2.58;;;2.22;;
7211;SDS011;3647;48.792;9.802;2023-05-29T18:48:57;2.97;;;2.17;;
7211;SDS011;3647;48.792;9.802;2023-05-29T18:51:24;3.33;;;2.35;;
7211;SDS011;3647;48.792;9.802;2023-05-29T18:53:52;3.00;;;2.20;;
7211;SDS011;3647;48.792;9.802;2023-05-29T18:56:20;3.47;;;2.40;;
7211;SDS011;3647;48.792;9.802;2023-05-29T18:58:47;3.42;;;2.22;;
7211;SDS011;3647;48.792;9.802;2023-05-29T19:01:13;3.78;;;2.50;;
7211;SDS011;3647;48.792;9.802;2023-05-29T19:03:40;4.53;;;2.78;;
7211;SDS011;3647;48.792;9.802;2023-05-29T19:06:07;3.13;;;2.78;;
7211;SDS011;3647;48.792;9.802;2023-05-29T19:08:34;5.65;;;2.72;;
7211;SDS011;3647;48.792;9.802;2023-05-29T19:11:02;2.95;;;2.17;;
7211;SDS011;3647;48.792;9.802;2023-05-29T19:13:29;3.15;;;2.45;;
7211;SDS011;3647;48.792;9.802;2023-05-29T19:15:57;3.25;;;2.47;;
7211;SDS011;3647;48.792;9.802;2023-05-29T19:18:24;3.70;;;2.63;;
7211;SDS011;3647;48.792;9.802;2023-05-29T19:20:51;3.20;;;2.60;;
7211;SDS011;3647;48.792;9.802;2023-05-29T19:23:18;3.42;;;2.55;;
7211;SDS011;3647;48.792;9.802;2023-05-29T19:25:45;3.50;;;2.72;;
7211;SDS011;3647;48.792;9.802;2023-05-29T19:28:13;2.75;;;2.50;;
7211;SDS011;3647;48.792;9.802;2023-05-29T19:30:40;3.53;;;2.70;;
7211;SDS011;3647;48.792;9.802;2023-05-29T19:33:07;3.70;;;2.30;;
7211;SDS011;3647;48.792;9.802;2023-05-29T19:35:34;3.55;;;2.70;;
7211;SDS011;3647;48.792;9.802;2023-05-29T19:38:02;6.97;;;3.10;;
7211;SDS011;3647;48.792;9.802;2023-05-29T19:40:29;2.85;;;2.40;;
7211;SDS011;3647;48.792;9.802;2023-05-29T19:42:56;5.18;;;3.25;;
7211;SDS011;3647;48.792;9.802;2023-05-29T19:45:24;3.15;;;2.85;;
7211;SDS011;3647;48.792;9.802;2023-05-29T19:47:51;5.95;;;3.97;;
7211;SDS011;3647;48.792;9.802;2023-05-29T19:50:18;3.63;;;2.80;;
7211;SDS011;3647;48.792;9.802;2023-05-29T19:52:45;5.10;;;3.85;;
7211;SDS011;3647;48.792;9.802;2023-05-29T19:55:12;3.17;;;2.67;;
7211;SDS011;3647;48.792;9.802;2023-05-29T19:57:39;4.40;;;3.15;;
7211;SDS011;3647;48.792;9.802;2023-05-29T20:00:06;4.32;;;2.85;;
7211;SDS011;3647;48.792;9.802;2023-05-29T20:02:36;6.38;;;3.60;;
7211;SDS011;3647;48.792;9.802;2023-05-29T20:05:03;5.30;;;3.33;;
7211;SDS011;3647;48.792;9.802;2023-05-29T20:07:31;4.38;;;2.92;;
7211;SDS011;3647;48.792;9.802;2023-05-29T20:09:58;5.13;;;3.50;;
7211;SDS011;3647;48.792;9.802;2023-05-29T20:12:25;3.75;;;3.20;;
7211;SDS011;3647;48.792;9.802;2023-05-29T20:14:52;4.13;;;3.60;;
7211;SDS011;3647;48.792;9.802;2023-05-29T20:17:19;6.30;;;3.22;;
7211;SDS011;3647;48.792;9.802;2023-05-29T20:19:49;3.63;;;3.03;;
7211;SDS011;3647;48.792;9.802;2023-05-29T20:22:16;6.15;;;3.10;;
7211;SDS011;3647;48.792;9.802;2023-05-29T20:24:44;5.07;;;3.28;;
7211;SDS011;3647;48.792;9.802;2023-05-29T20:27:10;4.35;;;3.20;;
7211;SDS011;3647;48.792;9.802;2023-05-29T20:29:37;4.25;;;3.40;;
7211;SDS011;3647;48.792;9.802;2023-05-29T20:32:04;4.45;;;3.03;;